Latest Weather Observations for Albury

IDN60801

Issued at 6:02 pm EDT Thursday 23 February 2017 (issued every 30 minutes, with the page automatically refreshed every 10 minutes)

About weather observations | Map of weather stations | Latest weather observations for NSW | Other Formats
Station Details ID: 072160 Name: ALBURY AIRPORT AWS Lat: -36.07 Lon: 146.95 Height: 163.5 m
Data from the previous 72 hours. | See also: Recent months at Albury
Date/Time
EDT
Temp
°C
App
Temp
°C
Dew
Point
°C
Rel
Hum
%
Delta-T
°C
Wind Press
QNH
hPa
Press
MSL
hPa
Rain since
9am
mm
Dir  Spd
km/h
Gust
km/h
Spd
kts
Gust
kts
23/05:30pm 34.5 29.6 5.0 16 15.8 WSW 20 33 11 18 1015.1 1014.4 0.0
23/05:00pm 34.8 29.6 5.3 16 15.9 WSW 22 33 12 18 1015.0 1014.3 0.0
23/04:30pm 35.1 29.9 3.6 14 16.6 NW 20 33 11 18 1015.0 1014.3 0.0
23/04:00pm 35.5 30.4 3.9 14 16.8 WSW 20 30 11 16 1015.2 1014.5 0.0
23/03:30pm 35.7 30.6 4.1 14 16.8 WSW 20 30 11 16 1015.3 1014.6 0.0
23/03:00pm 34.7 28.9 4.3 15 16.2 WSW 24 32 13 17 1015.8 1015.0 0.0
23/02:30pm 34.4 28.9 4.0 15 16.1 WSW 22 30 12 16 1015.9 1015.1 0.0
23/02:00pm 33.8 29.0 4.5 16 15.5 W 19 30 10 16 1016.0 1015.2 0.0
23/01:30pm 33.3 29.7 6.6 19 14.6 SW 15 26 8 14 1016.2 1015.4 0.0
23/01:00pm 33.2 30.5 7.2 20 14.4 W 11 19 6 10 1016.3 1015.5 0.0
23/12:30pm 32.8 29.7 5.4 18 14.7 NNW 11 17 6 9 1016.5 1015.7 0.0
23/12:00pm 32.3 29.5 5.0 18 14.5 N 9 17 5 9 1016.7 1015.9 0.0
23/11:30am 31.2 29.6 8.2 24 12.8 NNW 6 13 3 7 1016.8 1016.0 0.0
23/11:00am 29.6 27.8 8.1 26 11.8 NNE 7 11 4 6 1016.9 1016.1 0.0
23/10:30am 27.8 27.4 9.6 32 10.2 NW 2 9 1 5 1016.8 1016.0 0.0
23/10:00am 25.1 24.9 10.6 40 8.1 SSE 2 7 1 4 1016.8 1016.0 0.0
23/09:30am 22.8 22.1 11.5 49 6.4 SSE 6 7 3 4 1016.9 1016.1 0.0
23/09:00am 21.3 20.6 11.3 53 5.6 SE 6 7 3 4 1016.7 1015.9 0.0
23/08:30am 18.4 18.5 10.0 58 4.5 CALM 0 4 0 2 1016.3 1015.5 0.0
23/08:00am 17.1 17.1 9.8 62 3.9 CALM 0 0 0 0 1016.1 1015.3 0.0
23/07:30am 15.9 16.0 10.0 68 3.1 CALM 0 0 0 0 1015.5 1014.8 0.0
23/07:00am 15.5 15.4 9.4 67 3.2 CALM 0 0 0 0 1014.9 1014.2 0.0
23/06:30am 15.6 14.3 9.1 65 3.4 ESE 6 7 3 4 1014.6 1013.9 0.0
23/06:00am 15.7 14.3 8.9 64 3.5 SE 6 7 3 4 1014.3 1013.6 0.0
23/05:30am 16.5 15.1 8.7 60 4.0 SE 6 9 3 5 1014.1 1013.4 0.0
23/05:00am 17.9 15.8 8.2 53 5.0 ESE 9 13 5 7 1014.0 1013.3 0.0
23/04:30am 19.3 16.7 9.2 52 5.4 WSW 13 22 7 12 1013.6 1012.8 0.0
23/04:27am 21.2 18.6 9.4 47 6.4 WSW 13 20 7 11 1013.2 1012.4 0.0
23/04:00am 14.9 13.1 9.5 70 2.8 S 9 13 5 7 1012.7 1011.9 0.0
23/03:30am 15.9 14.6 9.1 64 3.5 SE 6 9 3 5 1012.9 1012.1 0.0
23/03:00am 15.8 14.4 8.8 63 3.6 E 6 7 3 4 1013.2 1012.4 0.0
23/02:30am 17.4 16.1 9.3 59 4.3 SE 6 7 3 4 1013.4 1012.6 0.0
23/02:00am 17.2 15.6 8.9 58 4.3 SE 7 11 4 6 1013.5 1012.7 0.0
23/01:30am 17.1 15.7 9.0 59 4.2 SSE 6 9 3 5 1013.6 1012.8 0.0
23/01:00am 18.4 15.9 8.1 51 5.3 SE 11 15 6 8 1013.7 1012.9 0.0
23/12:30am 20.6 18.4 9.2 48 6.1 SE 11 13 6 7 1013.7 1012.9 0.0
23/12:00am 18.8 17.3 9.3 54 5.0 SSE 7 11 4 6 1013.7 1012.9 0.0
 
Date/Time
EDT
Temp
°C
App
Temp
°C
Dew
Point
°C
Rel
Hum
%
Delta-T
°C
Wind Press
QNH
hPa
Press
MSL
hPa
Rain since
9am
mm
Dir  Spd
km/h
Gust
km/h
Spd
kts
Gust
kts
22/11:30pm 19.5 18.6 9.1 51 5.5 SSE 4 7 2 4 1013.6 1012.8 0.0
22/11:00pm 20.8 20.4 8.4 45 6.5 CALM 0 0 0 0 1013.6 1012.8 0.0
22/10:30pm 22.6 22.2 8.3 40 7.6 CALM 0 0 0 0 1013.5 1012.7 0.0
22/10:00pm 22.7 22.1 7.3 37 8.0 CALM 0 4 0 2 1013.3 1012.5 0.0
22/09:30pm 23.1 22.2 6.0 33 8.7 CALM 0 0 0 0 1013.1 1012.3 0.0
22/09:00pm 26.6 25.2 5.5 26 10.9 NE 2 7 1 4 1012.9 1012.1 0.0
22/08:30pm 28.7 26.1 4.2 21 12.6 NNE 7 9 4 5 1012.8 1012.0 0.0
22/08:00pm 30.9 27.8 3.8 18 14.0 N 9 11 5 6 1012.6 1011.8 0.0
22/07:30pm 32.5 28.1 2.5 15 15.3 N 15 22 8 12 1012.3 1011.5 0.0
22/07:00pm 33.1 28.6 2.1 14 15.8 N 15 24 8 13 1012.2 1011.4 0.0
22/06:30pm 33.8 28.5 1.6 13 16.3 NNW 19 24 10 13 1012.1 1011.3 0.0
22/06:00pm 33.8 29.0 0.5 12 16.6 N 15 24 8 13 1012.2 1011.4 0.0
22/05:30pm 34.1 28.6 0.7 12 16.7 NW 19 35 10 19 1012.5 1011.7 0.0
22/05:00pm 34.0 28.7 1.7 13 16.4 N 19 35 10 19 1012.7 1011.9 0.0
22/04:30pm 33.2 28.7 0.0 12 16.3 N 13 26 7 14 1013.2 1012.4 0.0
22/04:00pm 33.7 28.0 0.4 12 16.5 N 20 32 11 17 1013.7 1012.9 0.0
22/03:30pm 33.9 29.1 2.7 14 16.1 NNW 17 28 9 15 1014.2 1013.5 0.0
22/03:00pm 32.7 27.4 1.7 14 15.6 N 19 39 10 21 1014.7 1014.0 0.0
22/02:30pm 32.2 27.9 3.2 16 14.9 NNE 15 30 8 16 1015.3 1014.6 0.0
22/02:00pm 31.8 28.0 3.8 17 14.5 N 13 24 7 13 1015.8 1015.0 0.0
22/01:30pm 30.9 26.2 3.0 17 14.2 NNW 17 30 9 16 1016.3 1015.5 0.0
22/01:00pm 30.1 27.2 4.7 20 13.2 NW 9 17 5 9 1016.8 1016.0 0.0
22/12:30pm 29.1 27.3 10.7 32 10.5 S 11 20 6 11 1017.3 1016.5 0.0
22/12:00pm 28.4 25.9 9.6 31 10.5 E 13 32 7 17 1017.7 1016.9 0.0
22/11:30am 26.3 25.1 11.6 40 8.4 S 9 13 5 7 1018.1 1017.3 0.0
22/11:00am 23.7 22.2 10.4 43 7.4 SSE 9 15 5 8 1018.5 1017.7 0.0
22/10:30am 22.0 20.5 10.5 48 6.3 SSE 9 13 5 7 1018.8 1018.0 0.0
22/10:00am 20.1 18.8 9.9 52 5.5 SE 7 13 4 7 1019.0 1018.2 0.0
22/09:30am 18.2 16.4 9.3 56 4.7 ESE 9 11 5 6 1019.1 1018.3 0.0
22/09:00am 17.2 16.0 9.4 60 4.1 SE 6 7 3 4 1019.3 1018.6 0.0
22/08:30am 15.4 13.8 8.2 62 3.7 SSE 6 7 3 4 1019.4 1018.7 0.0
22/08:00am 14.0 12.4 7.8 66 3.1 ESE 6 7 3 4 1019.1 1018.3 0.0
22/07:30am 11.9 11.3 7.6 75 2.1 CALM 0 2 0 1 1018.8 1018.0 0.0
22/07:00am 10.8 10.1 7.1 78 1.8 CALM 0 0 0 0 1018.7 1017.9 0.0
22/06:30am 11.7 10.0 7.4 75 2.1 ESE 6 7 3 4 1018.5 1017.7 0.0
22/06:00am 11.4 10.9 7.7 78 1.8 CALM 0 6 0 3 1018.4 1017.6 0.0
22/05:30am 11.8 10.8 7.5 75 2.1 NNE 2 7 1 4 1018.0 1017.2 0.0
22/05:00am 11.7 11.1 7.4 75 2.1 CALM 0 4 0 2 1017.8 1017.0 0.0
22/04:30am 12.2 11.0 7.9 75 2.1 E 4 7 2 4 1017.9 1017.1 0.0
22/04:00am 11.7 11.1 7.4 75 2.1 CALM 0 0 0 0 1017.9 1017.1 0.0
22/03:32am 11.9 10.9 7.2 73 2.3 SSE 2 6 1 3 1018.0 1017.2 0.0
22/03:30am 12.0 11.0 7.5 74 2.2 S 2 6 1 3 1018.0 1017.2 0.0
22/03:03am 11.6 10.9 6.9 73 2.3 CALM 0 0 0 0 1018.1 1017.3 0.0
22/03:00am 11.7 11.0 6.8 72 2.3 CALM 0 0 0 0 1018.0 1017.2 0.0
22/02:30am 12.2 11.4 6.7 69 2.6 CALM 0 0 0 0 1018.1 1017.3 0.0
22/02:00am 14.0 13.4 7.3 64 3.3 CALM 0 4 0 2 1018.2 1017.4 0.0
22/01:30am 14.4 13.8 7.5 63 3.4 CALM 0 4 0 2 1018.5 1017.7 0.0
22/01:00am 14.4 13.8 7.5 63 3.4 CALM 0 0 0 0 1018.6 1017.8 0.0
22/12:30am 15.1 14.5 7.2 59 3.9 CALM 0 0 0 0 1018.7 1017.9 0.0
22/12:00am 15.4 14.8 7.2 58 4.1 CALM 0 0 0 0 1018.7 1017.9 0.0
 
Date/Time
EDT
Temp
°C
App
Temp
°C
Dew
Point
°C
Rel
Hum
%
Delta-T
°C
Wind Press
QNH
hPa
Press
MSL
hPa
Rain since
9am
mm
Dir  Spd
km/h
Gust
km/h
Spd
kts
Gust
kts
21/11:30pm 15.8 15.2 7.6 58 4.1 CALM 0 0 0 0 1018.7 1017.9 0.0
21/11:00pm 16.8 16.3 8.0 56 4.5 CALM 0 0 0 0 1018.8 1018.0 0.0
21/10:30pm 16.4 15.0 8.9 61 3.9 SE 6 9 3 5 1018.9 1018.1 0.0
21/10:00pm 17.0 16.3 8.4 57 4.4 E 2 7 1 4 1018.8 1018.0 0.0
21/09:30pm 17.9 16.5 5.5 44 6.1 NNW 2 6 1 3 1018.7 1017.9 0.0
21/09:00pm 19.0 16.3 5.5 41 6.6 NW 9 11 5 6 1018.5 1017.7 0.0
21/08:30pm 20.4 19.4 5.6 38 7.4 CALM 0 0 0 0 1018.0 1017.2 0.0
21/08:00pm 23.2 20.6 3.2 27 9.7 SE 6 6 3 3 1017.8 1017.0 0.0
21/07:30pm 24.7 21.9 2.2 23 10.8 ESE 6 7 3 4 1017.7 1016.9 0.0
21/07:00pm 25.2 21.9 2.6 23 11.0 SE 9 13 5 7 1017.4 1016.6 0.0
21/06:30pm 25.5 22.3 2.9 23 11.1 SE 9 17 5 9 1017.4 1016.6 0.0
21/06:00pm 25.6 22.8 2.9 23 11.1 S 7 11 4 6 1017.5 1016.7 0.0
21/05:30pm 26.1 23.6 4.6 25 10.9 SE 7 13 4 7 1017.5 1016.7 0.0
21/05:00pm 26.0 23.0 3.9 24 11.1 SSW 9 13 5 7 1017.8 1017.0 0.0
21/04:30pm 25.9 22.5 3.8 24 11.1 S 11 17 6 9 1017.9 1017.1 0.0
21/04:00pm 25.2 22.1 3.8 25 10.6 ESE 9 15 5 8 1018.2 1017.4 0.0
21/03:30pm 25.4 22.6 5.1 27 10.4 SSE 9 17 5 9 1018.6 1017.8 0.0
21/03:00pm 24.9 21.2 4.6 27 10.2 NNW 13 22 7 12 1019.1 1018.3 0.0
21/02:30pm 25.0 22.6 5.2 28 10.1 S 7 13 4 7 1019.5 1018.8 0.0
21/02:00pm 24.7 22.0 5.5 29 9.8 N 9 17 5 9 1020.0 1019.3 0.0
21/01:30pm 23.4 20.5 4.4 29 9.5 WSW 9 17 5 9 1020.2 1019.5 0.0
21/01:00pm 22.7 19.6 5.6 33 8.6 SE 11 19 6 10 1020.4 1019.7 0.0
21/12:30pm 22.4 19.7 5.4 33 8.6 WNW 9 17 5 9 1020.7 1020.0 0.0
21/12:00pm 21.5 19.0 5.0 34 8.2 NNE 7 11 4 6 1021.2 1020.5 0.0
21/11:30am 21.3 19.4 7.5 41 7.2 SE 7 11 4 6 1021.5 1020.8 0.0
21/11:00am 19.9 19.0 9.2 50 5.7 ENE 4 9 2 5 1021.7 1021.0 0.0
21/10:30am 17.6 15.9 8.2 54 4.8 S 7 11 4 6 1021.8 1021.1 0.0
21/10:00am 17.4 16.1 9.3 59 4.2 ESE 6 9 3 5 1021.7 1021.0 0.0
21/09:30am 15.0 13.7 9.1 68 3.0 SSE 6 11 3 6 1021.7 1021.0 0.0
21/09:00am 13.2 11.7 8.5 73 2.4 S 6 7 3 4 1021.6 1020.9 0.0
21/08:30am 11.8 11.1 7.1 73 2.3 CALM 0 4 0 2 1021.1 1020.4 0.0
21/08:00am 11.1 9.4 7.6 79 1.7 SE 6 11 3 6 1020.9 1020.2 0.0
21/07:30am 9.0 7.2 7.1 88 0.9 S 6 7 3 4 1020.5 1019.8 0.0
21/07:00am 8.7 8.0 7.0 89 0.8 CALM 0 0 0 0 1019.9 1019.2 0.0
21/06:30am 8.8 7.7 7.1 89 0.8 S 2 6 1 3 1019.7 1019.0 0.0
21/06:00am 9.3 8.3 7.4 88 0.9 NW 2 6 1 3 1019.5 1018.8 0.0
21/05:30am 9.0 7.6 7.1 88 0.9 NNW 4 7 2 4 1019.3 1018.6 0.0
21/05:00am 8.7 8.0 6.8 88 0.9 CALM 0 0 0 0 1018.9 1018.1 0.0
21/04:30am 8.6 7.8 6.4 86 1.0 CALM 0 0 0 0 1018.6 1017.8 0.0
21/04:00am 9.7 8.8 7.8 88 0.9 SSE 2 6 1 3 1018.5 1017.7 0.0
21/03:30am 10.1 9.6 7.9 86 1.1 CALM 0 0 0 0 1018.5 1017.7 0.0
21/03:00am 9.9 9.3 7.5 85 1.2 CALM 0 0 0 0 1018.5 1017.7 0.0
21/02:30am 10.2 9.4 8.0 86 1.1 SE 2 7 1 4 1018.3 1017.5 0.0
21/02:00am 10.6 9.7 7.8 83 1.4 S 2 7 1 4 1018.3 1017.5 0.0
21/01:30am 11.3 10.5 8.2 81 1.5 NW 2 9 1 5 1018.4 1017.6 0.0
21/01:00am 11.1 9.4 7.4 78 1.8 ESE 6 7 3 4 1018.3 1017.5 0.0
21/12:30am 11.9 10.3 7.8 76 2.0 SSE 6 7 3 4 1018.1 1017.3 0.0
21/12:00am 11.5 9.9 8.0 79 1.7 SSE 6 9 3 5 1018.2 1017.4 0.0
 
Date/Time
EDT
Temp
°C
App
Temp
°C
Dew
Point
°C
Rel
Hum
%
Delta-T
°C
Wind Press
QNH
hPa
Press
MSL
hPa
Rain since
9am
mm
Dir  Spd
km/h
Gust
km/h
Spd
kts
Gust
kts
20/11:30pm 12.2 10.4 8.1 76 2.0 ENE 7 9 4 5 1017.9 1017.1 0.0
20/11:00pm 12.2 11.8 8.3 77 1.9 CALM 0 6 0 3 1017.7 1016.9 0.0
20/10:30pm 13.1 12.5 7.5 69 2.8 CALM 0 0 0 0 1017.4 1016.6 0.0
20/10:00pm 14.2 13.8 8.2 67 3.0 CALM 0 0 0 0 1017.1 1016.3 0.0
20/09:30pm 14.5 14.0 8.0 65 3.3 CALM 0 0 0 0 1016.7 1015.9 0.0
20/09:00pm 15.4 13.8 6.4 55 4.4 ENE 4 6 2 3 1016.4 1015.6 0.0
20/08:30pm 17.2 15.6 6.4 49 5.4 NNW 4 7 2 4 1015.9 1015.1 0.0
20/08:00pm 18.5 16.6 4.7 40 6.7 NW 4 7 2 4 1015.4 1014.7 0.0
20/07:30pm 19.0 16.4 4.0 37 7.2 NW 7 9 4 5 1014.9 1014.2 0.0
20/07:00pm 20.5 18.0 4.9 36 7.7 WNW 7 9 4 5 1014.5 1013.8 0.0
20/06:30pm 19.3 16.2 5.4 40 6.9 WNW 11 17 6 9 1014.3 1013.6 0.0

Other Formats:

Comma delimited format used in spreadsheet applications
http://www.bom.gov.au/fwo/IDN60801/IDN60801.95896.axf

JavaScript Object Notation format (JSON) in row-major order
http://www.bom.gov.au/fwo/IDN60801/IDN60801.95896.json